sensor_id;sensor_type;location;lat;lon;timestamp;P1;durP1;ratioP1;P2;durP2;ratioP2
25780;SDS011;13626;48.128;11.628;2023-07-29T00:00:09;3.95;;;2.97;;
25780;SDS011;13626;48.128;11.628;2023-07-29T00:02:39;2.95;;;2.38;;
25780;SDS011;13626;48.128;11.628;2023-07-29T00:05:07;3.25;;;2.80;;
25780;SDS011;13626;48.128;11.628;2023-07-29T00:07:34;4.60;;;2.80;;
25780;SDS011;13626;48.128;11.628;2023-07-29T00:10:01;5.53;;;2.60;;
25780;SDS011;13626;48.128;11.628;2023-07-29T00:12:29;3.97;;;2.90;;
25780;SDS011;13626;48.128;11.628;2023-07-29T00:14:56;6.18;;;3.00;;
25780;SDS011;13626;48.128;11.628;2023-07-29T00:17:23;2.97;;;2.53;;
25780;SDS011;13626;48.128;11.628;2023-07-29T00:19:51;3.10;;;2.38;;
25780;SDS011;13626;48.128;11.628;2023-07-29T00:22:18;3.97;;;2.63;;
25780;SDS011;13626;48.128;11.628;2023-07-29T00:24:50;3.65;;;2.63;;
25780;SDS011;13626;48.128;11.628;2023-07-29T00:27:17;5.78;;;2.85;;
25780;SDS011;13626;48.128;11.628;2023-07-29T00:29:45;2.80;;;2.50;;
25780;SDS011;13626;48.128;11.628;2023-07-29T00:32:12;3.33;;;2.20;;
25780;SDS011;13626;48.128;11.628;2023-07-29T00:34:39;3.03;;;2.72;;
25780;SDS011;13626;48.128;11.628;2023-07-29T00:37:06;4.47;;;2.60;;
25780;SDS011;13626;48.128;11.628;2023-07-29T00:39:33;5.82;;;2.88;;
25780;SDS011;13626;48.128;11.628;2023-07-29T00:42:00;4.25;;;2.50;;
25780;SDS011;13626;48.128;11.628;2023-07-29T00:44:28;4.20;;;2.53;;
25780;SDS011;13626;48.128;11.628;2023-07-29T00:46:55;5.75;;;2.90;;
25780;SDS011;13626;48.128;11.628;2023-07-29T00:49:22;4.32;;;2.70;;
25780;SDS011;13626;48.128;11.628;2023-07-29T00:51:49;3.15;;;2.33;;
25780;SDS011;13626;48.128;11.628;2023-07-29T00:54:17;3.40;;;2.72;;
25780;SDS011;13626;48.128;11.628;2023-07-29T00:56:44;3.28;;;2.67;;
25780;SDS011;13626;48.128;11.628;2023-07-29T00:59:11;2.80;;;2.40;;
25780;SDS011;13626;48.128;11.628;2023-07-29T01:01:38;3.75;;;2.67;;
25780;SDS011;13626;48.128;11.628;2023-07-29T01:04:06;3.53;;;2.58;;
25780;SDS011;13626;48.128;11.628;2023-07-29T01:09:08;2.95;;;2.60;;
25780;SDS011;13626;48.128;11.628;2023-07-29T01:11:57;3.42;;;2.38;;
25780;SDS011;13626;48.128;11.628;2023-07-29T01:17:13;3.33;;;2.80;;
25780;SDS011;13626;48.128;11.628;2023-07-29T01:22:28;4.25;;;2.83;;
25780;SDS011;13626;48.128;11.628;2023-07-29T01:24:57;2.75;;;2.40;;
25780;SDS011;13626;48.128;11.628;2023-07-29T01:27:25;4.97;;;2.78;;
25780;SDS011;13626;48.128;11.628;2023-07-29T01:29:54;2.67;;;2.35;;
25780;SDS011;13626;48.128;11.628;2023-07-29T01:32:25;3.60;;;2.90;;
25780;SDS011;13626;48.128;11.628;2023-07-29T01:35:12;4.22;;;2.42;;
25780;SDS011;13626;48.128;11.628;2023-07-29T01:37:42;3.15;;;2.40;;
25780;SDS011;13626;48.128;11.628;2023-07-29T01:40:10;6.07;;;2.53;;
25780;SDS011;13626;48.128;11.628;2023-07-29T01:42:37;3.30;;;2.90;;
25780;SDS011;13626;48.128;11.628;2023-07-29T01:45:05;3.50;;;2.60;;
25780;SDS011;13626;48.128;11.628;2023-07-29T01:47:32;3.65;;;2.58;;
25780;SDS011;13626;48.128;11.628;2023-07-29T01:50:00;3.88;;;2.70;;
25780;SDS011;13626;48.128;11.628;2023-07-29T01:52:27;2.50;;;2.30;;
25780;SDS011;13626;48.128;11.628;2023-07-29T01:54:55;3.20;;;2.50;;
25780;SDS011;13626;48.128;11.628;2023-07-29T01:57:22;5.82;;;2.40;;
25780;SDS011;13626;48.128;11.628;2023-07-29T01:59:50;2.83;;;2.30;;
25780;SDS011;13626;48.128;11.628;2023-07-29T02:02:17;3.17;;;2.63;;
25780;SDS011;13626;48.128;11.628;2023-07-29T02:04:44;3.35;;;2.70;;
25780;SDS011;13626;48.128;11.628;2023-07-29T02:07:18;2.55;;;2.33;;
25780;SDS011;13626;48.128;11.628;2023-07-29T02:09:45;4.15;;;2.78;;
25780;SDS011;13626;48.128;11.628;2023-07-29T02:12:12;3.45;;;2.58;;
25780;SDS011;13626;48.128;11.628;2023-07-29T02:14:40;3.47;;;2.60;;
25780;SDS011;13626;48.128;11.628;2023-07-29T02:17:07;3.33;;;2.58;;
25780;SDS011;13626;48.128;11.628;2023-07-29T02:19:35;2.42;;;2.13;;
25780;SDS011;13626;48.128;11.628;2023-07-29T02:22:02;5.38;;;2.70;;
25780;SDS011;13626;48.128;11.628;2023-07-29T02:24:29;2.35;;;2.10;;
25780;SDS011;13626;48.128;11.628;2023-07-29T02:26:57;4.00;;;2.65;;
25780;SDS011;13626;48.128;11.628;2023-07-29T02:29:24;3.85;;;2.65;;
25780;SDS011;13626;48.128;11.628;2023-07-29T02:31:51;3.63;;;2.50;;
25780;SDS011;13626;48.128;11.628;2023-07-29T02:34:18;3.72;;;2.53;;
25780;SDS011;13626;48.128;11.628;2023-07-29T02:36:46;2.97;;;2.30;;
25780;SDS011;13626;48.128;11.628;2023-07-29T02:39:13;3.17;;;2.88;;
25780;SDS011;13626;48.128;11.628;2023-07-29T02:41:40;3.42;;;2.42;;
25780;SDS011;13626;48.128;11.628;2023-07-29T02:44:07;3.65;;;2.65;;
25780;SDS011;13626;48.128;11.628;2023-07-29T02:46:34;3.42;;;2.60;;
25780;SDS011;13626;48.128;11.628;2023-07-29T02:49:02;5.65;;;2.75;;
25780;SDS011;13626;48.128;11.628;2023-07-29T02:51:30;4.35;;;2.50;;
25780;SDS011;13626;48.128;11.628;2023-07-29T02:53:57;4.18;;;2.97;;
25780;SDS011;13626;48.128;11.628;2023-07-29T02:56:25;6.30;;;3.03;;
25780;SDS011;13626;48.128;11.628;2023-07-29T02:58:52;4.22;;;2.80;;
25780;SDS011;13626;48.128;11.628;2023-07-29T03:01:19;4.65;;;3.05;;
25780;SDS011;13626;48.128;11.628;2023-07-29T03:03:46;3.83;;;2.58;;
25780;SDS011;13626;48.128;11.628;2023-07-29T03:06:14;3.58;;;2.70;;
25780;SDS011;13626;48.128;11.628;2023-07-29T03:08:41;4.25;;;2.55;;
25780;SDS011;13626;48.128;11.628;2023-07-29T03:11:09;4.35;;;2.53;;
25780;SDS011;13626;48.128;11.628;2023-07-29T03:13:37;3.97;;;2.40;;
25780;SDS011;13626;48.128;11.628;2023-07-29T03:16:08;3.10;;;2.53;;
25780;SDS011;13626;48.128;11.628;2023-07-29T03:18:35;7.57;;;2.45;;
25780;SDS011;13626;48.128;11.628;2023-07-29T03:21:03;4.60;;;3.00;;
25780;SDS011;13626;48.128;11.628;2023-07-29T03:23:31;3.03;;;2.63;;
25780;SDS011;13626;48.128;11.628;2023-07-29T03:25:59;3.33;;;2.50;;
25780;SDS011;13626;48.128;11.628;2023-07-29T03:28:28;3.90;;;2.72;;
25780;SDS011;13626;48.128;11.628;2023-07-29T03:30:56;5.13;;;2.88;;
25780;SDS011;13626;48.128;11.628;2023-07-29T03:33:24;4.50;;;2.85;;
25780;SDS011;13626;48.128;11.628;2023-07-29T03:35:52;6.97;;;2.92;;
25780;SDS011;13626;48.128;11.628;2023-07-29T03:38:19;4.10;;;2.67;;
25780;SDS011;13626;48.128;11.628;2023-07-29T03:40:46;4.07;;;2.60;;
25780;SDS011;13626;48.128;11.628;2023-07-29T03:43:14;3.83;;;2.40;;
25780;SDS011;13626;48.128;11.628;2023-07-29T03:45:41;4.05;;;2.58;;
25780;SDS011;13626;48.128;11.628;2023-07-29T03:48:08;5.10;;;2.58;;
25780;SDS011;13626;48.128;11.628;2023-07-29T03:50:36;4.28;;;2.63;;
25780;SDS011;13626;48.128;11.628;2023-07-29T03:53:04;4.65;;;2.70;;
25780;SDS011;13626;48.128;11.628;2023-07-29T03:55:32;3.03;;;2.30;;
25780;SDS011;13626;48.128;11.628;2023-07-29T03:57:59;3.50;;;2.50;;
25780;SDS011;13626;48.128;11.628;2023-07-29T04:00:27;2.80;;;2.50;;
25780;SDS011;13626;48.128;11.628;2023-07-29T04:02:54;5.43;;;2.42;;
25780;SDS011;13626;48.128;11.628;2023-07-29T04:05:21;2.80;;;2.47;;
25780;SDS011;13626;48.128;11.628;2023-07-29T04:07:48;3.08;;;2.42;;
25780;SDS011;13626;48.128;11.628;2023-07-29T04:10:16;4.05;;;2.33;;
25780;SDS011;13626;48.128;11.628;2023-07-29T04:12:43;2.92;;;2.55;;
25780;SDS011;13626;48.128;11.628;2023-07-29T04:15:10;5.63;;;2.40;;
25780;SDS011;13626;48.128;11.628;2023-07-29T04:17:37;2.45;;;2.15;;
25780;SDS011;13626;48.128;11.628;2023-07-29T04:20:05;2.97;;;2.42;;
25780;SDS011;13626;48.128;11.628;2023-07-29T04:22:33;4.45;;;2.28;;
25780;SDS011;13626;48.128;11.628;2023-07-29T04:25:01;5.43;;;2.53;;
25780;SDS011;13626;48.128;11.628;2023-07-29T04:27:28;5.05;;;2.40;;
25780;SDS011;13626;48.128;11.628;2023-07-29T04:29:55;4.03;;;2.15;;
25780;SDS011;13626;48.128;11.628;2023-07-29T04:32:22;6.30;;;2.30;;
25780;SDS011;13626;48.128;11.628;2023-07-29T04:34:49;3.33;;;2.38;;
25780;SDS011;13626;48.128;11.628;2023-07-29T04:37:16;2.80;;;2.55;;
25780;SDS011;13626;48.128;11.628;2023-07-29T04:39:44;3.08;;;2.28;;
25780;SDS011;13626;48.128;11.628;2023-07-29T04:42:11;4.95;;;2.50;;
25780;SDS011;13626;48.128;11.628;2023-07-29T04:44:38;2.72;;;2.20;;
25780;SDS011;13626;48.128;11.628;2023-07-29T04:47:08;3.67;;;2.10;;
25780;SDS011;13626;48.128;11.628;2023-07-29T04:49:35;2.85;;;2.38;;
25780;SDS011;13626;48.128;11.628;2023-07-29T04:52:02;5.78;;;2.60;;
25780;SDS011;13626;48.128;11.628;2023-07-29T04:54:29;4.35;;;2.50;;
25780;SDS011;13626;48.128;11.628;2023-07-29T04:56:57;3.95;;;2.85;;
25780;SDS011;13626;48.128;11.628;2023-07-29T04:59:24;2.45;;;2.13;;
25780;SDS011;13626;48.128;11.628;2023-07-29T05:01:51;3.70;;;2.60;;
25780;SDS011;13626;48.128;11.628;2023-07-29T05:04:20;3.35;;;2.28;;
25780;SDS011;13626;48.128;11.628;2023-07-29T05:06:48;2.95;;;2.17;;
25780;SDS011;13626;48.128;11.628;2023-07-29T05:09:15;4.80;;;2.55;;
25780;SDS011;13626;48.128;11.628;2023-07-29T05:11:44;3.90;;;2.28;;
25780;SDS011;13626;48.128;11.628;2023-07-29T05:14:12;4.15;;;2.42;;
25780;SDS011;13626;48.128;11.628;2023-07-29T05:16:40;5.28;;;2.40;;
25780;SDS011;13626;48.128;11.628;2023-07-29T05:19:08;2.92;;;2.00;;
25780;SDS011;13626;48.128;11.628;2023-07-29T05:21:36;4.35;;;2.15;;
25780;SDS011;13626;48.128;11.628;2023-07-29T05:24:04;3.15;;;2.10;;
25780;SDS011;13626;48.128;11.628;2023-07-29T05:26:31;2.28;;;1.80;;
25780;SDS011;13626;48.128;11.628;2023-07-29T05:28:59;2.90;;;2.00;;
25780;SDS011;13626;48.128;11.628;2023-07-29T05:31:26;2.40;;;2.03;;
25780;SDS011;13626;48.128;11.628;2023-07-29T05:33:54;2.60;;;1.80;;
25780;SDS011;13626;48.128;11.628;2023-07-29T05:36:21;3.25;;;1.77;;
25780;SDS011;13626;48.128;11.628;2023-07-29T05:38:48;3.03;;;2.10;;
25780;SDS011;13626;48.128;11.628;2023-07-29T05:41:15;3.33;;;1.88;;
25780;SDS011;13626;48.128;11.628;2023-07-29T05:43:42;2.22;;;2.03;;
25780;SDS011;13626;48.128;11.628;2023-07-29T05:46:11;2.13;;;1.92;;
25780;SDS011;13626;48.128;11.628;2023-07-29T05:48:38;2.88;;;1.95;;
25780;SDS011;13626;48.128;11.628;2023-07-29T05:51:05;2.53;;;1.60;;
25780;SDS011;13626;48.128;11.628;2023-07-29T05:53:33;2.25;;;1.80;;
25780;SDS011;13626;48.128;11.628;2023-07-29T05:56:00;3.53;;;1.80;;
25780;SDS011;13626;48.128;11.628;2023-07-29T05:58:27;3.25;;;2.20;;
25780;SDS011;13626;48.128;11.628;2023-07-29T06:00:57;2.60;;;1.90;;
25780;SDS011;13626;48.128;11.628;2023-07-29T06:03:24;3.70;;;1.85;;
25780;SDS011;13626;48.128;11.628;2023-07-29T06:05:52;4.25;;;1.95;;
25780;SDS011;13626;48.128;11.628;2023-07-29T06:08:20;1.90;;;1.70;;
25780;SDS011;13626;48.128;11.628;2023-07-29T06:10:48;3.08;;;2.17;;
25780;SDS011;13626;48.128;11.628;2023-07-29T06:13:16;3.35;;;1.83;;
25780;SDS011;13626;48.128;11.628;2023-07-29T06:15:43;3.95;;;2.40;;
25780;SDS011;13626;48.128;11.628;2023-07-29T06:18:10;3.67;;;2.08;;
25780;SDS011;13626;48.128;11.628;2023-07-29T06:20:37;2.85;;;1.88;;
25780;SDS011;13626;48.128;11.628;2023-07-29T06:23:05;3.38;;;1.83;;
25780;SDS011;13626;48.128;11.628;2023-07-29T06:25:32;2.15;;;1.90;;
25780;SDS011;13626;48.128;11.628;2023-07-29T06:27:59;2.63;;;1.70;;
25780;SDS011;13626;48.128;11.628;2023-07-29T06:30:26;2.58;;;1.90;;
25780;SDS011;13626;48.128;11.628;2023-07-29T06:32:53;3.42;;;1.83;;
25780;SDS011;13626;48.128;11.628;2023-07-29T06:35:21;2.55;;;2.08;;
25780;SDS011;13626;48.128;11.628;2023-07-29T06:37:48;3.55;;;2.15;;
25780;SDS011;13626;48.128;11.628;2023-07-29T06:40:15;3.75;;;2.08;;
25780;SDS011;13626;48.128;11.628;2023-07-29T06:42:42;2.47;;;1.90;;
25780;SDS011;13626;48.128;11.628;2023-07-29T06:45:10;2.13;;;1.67;;
25780;SDS011;13626;48.128;11.628;2023-07-29T06:47:37;3.97;;;2.00;;
25780;SDS011;13626;48.128;11.628;2023-07-29T06:50:05;3.58;;;1.92;;
25780;SDS011;13626;48.128;11.628;2023-07-29T06:52:32;4.82;;;1.77;;
25780;SDS011;13626;48.128;11.628;2023-07-29T06:54:59;1.90;;;1.67;;
25780;SDS011;13626;48.128;11.628;2023-07-29T06:57:27;4.80;;;2.50;;
25780;SDS011;13626;48.128;11.628;2023-07-29T06:59:54;4.28;;;2.10;;
25780;SDS011;13626;48.128;11.628;2023-07-29T07:02:21;4.10;;;2.33;;
25780;SDS011;13626;48.128;11.628;2023-07-29T07:04:48;3.53;;;2.10;;
25780;SDS011;13626;48.128;11.628;2023-07-29T07:07:16;4.43;;;2.10;;
25780;SDS011;13626;48.128;11.628;2023-07-29T07:09:43;3.20;;;2.17;;
25780;SDS011;13626;48.128;11.628;2023-07-29T07:12:10;4.60;;;2.30;;
25780;SDS011;13626;48.128;11.628;2023-07-29T07:14:37;5.78;;;2.25;;
25780;SDS011;13626;48.128;11.628;2023-07-29T07:17:05;3.72;;;2.13;;
25780;SDS011;13626;48.128;11.628;2023-07-29T07:19:32;2.85;;;2.10;;
25780;SDS011;13626;48.128;11.628;2023-07-29T07:21:59;3.50;;;2.30;;
25780;SDS011;13626;48.128;11.628;2023-07-29T07:24:26;3.30;;;2.17;;
25780;SDS011;13626;48.128;11.628;2023-07-29T07:26:53;3.03;;;2.30;;
25780;SDS011;13626;48.128;11.628;2023-07-29T07:29:21;3.95;;;2.30;;
25780;SDS011;13626;48.128;11.628;2023-07-29T07:31:52;3.85;;;2.38;;
25780;SDS011;13626;48.128;11.628;2023-07-29T07:34:20;5.90;;;2.38;;
25780;SDS011;13626;48.128;11.628;2023-07-29T07:36:47;2.50;;;1.95;;
25780;SDS011;13626;48.128;11.628;2023-07-29T07:39:14;3.20;;;2.35;;
25780;SDS011;13626;48.128;11.628;2023-07-29T07:41:42;3.72;;;2.45;;
25780;SDS011;13626;48.128;11.628;2023-07-29T07:44:09;7.10;;;2.38;;
25780;SDS011;13626;48.128;11.628;2023-07-29T07:46:37;3.88;;;2.40;;
25780;SDS011;13626;48.128;11.628;2023-07-29T07:49:05;3.83;;;2.17;;
25780;SDS011;13626;48.128;11.628;2023-07-29T07:51:32;4.40;;;2.30;;
25780;SDS011;13626;48.128;11.628;2023-07-29T07:53:59;3.15;;;2.20;;
25780;SDS011;13626;48.128;11.628;2023-07-29T07:56:26;4.47;;;2.15;;
25780;SDS011;13626;48.128;11.628;2023-07-29T07:58:53;4.40;;;2.80;;
25780;SDS011;13626;48.128;11.628;2023-07-29T08:01:20;3.97;;;2.35;;
25780;SDS011;13626;48.128;11.628;2023-07-29T08:03:48;3.33;;;2.45;;
25780;SDS011;13626;48.128;11.628;2023-07-29T08:06:15;3.90;;;2.60;;
25780;SDS011;13626;48.128;11.628;2023-07-29T08:08:42;4.03;;;2.60;;
25780;SDS011;13626;48.128;11.628;2023-07-29T08:11:09;4.22;;;2.65;;
25780;SDS011;13626;48.128;11.628;2023-07-29T08:13:36;3.03;;;2.40;;
25780;SDS011;13626;48.128;11.628;2023-07-29T08:16:04;3.15;;;2.33;;
25780;SDS011;13626;48.128;11.628;2023-07-29T08:18:31;4.25;;;2.78;;
25780;SDS011;13626;48.128;11.628;2023-07-29T08:21:00;4.40;;;2.47;;
25780;SDS011;13626;48.128;11.628;2023-07-29T08:23:30;2.85;;;2.45;;
25780;SDS011;13626;48.128;11.628;2023-07-29T08:25:58;3.42;;;2.55;;
25780;SDS011;13626;48.128;11.628;2023-07-29T08:28:30;3.95;;;2.40;;
25780;SDS011;13626;48.128;11.628;2023-07-29T08:30:58;3.13;;;2.63;;
25780;SDS011;13626;48.128;11.628;2023-07-29T08:33:25;3.03;;;2.15;;
25780;SDS011;13626;48.128;11.628;2023-07-29T08:35:53;3.03;;;2.60;;
25780;SDS011;13626;48.128;11.628;2023-07-29T08:38:20;3.20;;;2.13;;
25780;SDS011;13626;48.128;11.628;2023-07-29T08:40:54;3.05;;;2.50;;
25780;SDS011;13626;48.128;11.628;2023-07-29T08:43:30;3.35;;;2.42;;
25780;SDS011;13626;48.128;11.628;2023-07-29T08:45:58;5.82;;;2.63;;
25780;SDS011;13626;48.128;11.628;2023-07-29T08:48:32;3.10;;;2.45;;
25780;SDS011;13626;48.128;11.628;2023-07-29T08:50:59;3.65;;;2.67;;
25780;SDS011;13626;48.128;11.628;2023-07-29T08:53:28;2.60;;;2.40;;
25780;SDS011;13626;48.128;11.628;2023-07-29T08:55:55;3.33;;;2.33;;
25780;SDS011;13626;48.128;11.628;2023-07-29T08:58:23;4.10;;;2.42;;
25780;SDS011;13626;48.128;11.628;2023-07-29T09:00:51;2.95;;;2.45;;
25780;SDS011;13626;48.128;11.628;2023-07-29T09:03:19;3.67;;;2.95;;
25780;SDS011;13626;48.128;11.628;2023-07-29T09:05:46;3.20;;;2.90;;
25780;SDS011;13626;48.128;11.628;2023-07-29T09:08:14;3.90;;;2.58;;
25780;SDS011;13626;48.128;11.628;2023-07-29T09:10:41;5.68;;;3.08;;
25780;SDS011;13626;48.128;11.628;2023-07-29T09:13:08;3.92;;;2.90;;
25780;SDS011;13626;48.128;11.628;2023-07-29T09:15:36;3.05;;;2.58;;
25780;SDS011;13626;48.128;11.628;2023-07-29T09:18:37;2.92;;;2.53;;
25780;SDS011;13626;48.128;11.628;2023-07-29T09:20:58;3.03;;;2.67;;
25780;SDS011;13626;48.128;11.628;2023-07-29T09:23:27;4.05;;;2.70;;
25780;SDS011;13626;48.128;11.628;2023-07-29T09:26:03;3.25;;;2.90;;
25780;SDS011;13626;48.128;11.628;2023-07-29T09:28:34;4.05;;;2.60;;
25780;SDS011;13626;48.128;11.628;2023-07-29T09:31:03;3.05;;;2.75;;
25780;SDS011;13626;48.128;11.628;2023-07-29T09:33:34;2.97;;;2.53;;
25780;SDS011;13626;48.128;11.628;2023-07-29T09:36:08;4.47;;;2.58;;
25780;SDS011;13626;48.128;11.628;2023-07-29T09:38:36;3.20;;;2.80;;
25780;SDS011;13626;48.128;11.628;2023-07-29T09:41:04;3.00;;;2.80;;
25780;SDS011;13626;48.128;11.628;2023-07-29T09:43:32;3.90;;;2.70;;
25780;SDS011;13626;48.128;11.628;2023-07-29T09:46:00;4.63;;;2.72;;
25780;SDS011;13626;48.128;11.628;2023-07-29T09:48:28;3.67;;;2.58;;
25780;SDS011;13626;48.128;11.628;2023-07-29T09:50:55;2.88;;;2.60;;
25780;SDS011;13626;48.128;11.628;2023-07-29T09:53:23;3.10;;;2.80;;
25780;SDS011;13626;48.128;11.628;2023-07-29T09:55:53;4.63;;;3.20;;
25780;SDS011;13626;48.128;11.628;2023-07-29T09:58:26;3.38;;;3.05;;
25780;SDS011;13626;48.128;11.628;2023-07-29T10:00:54;3.40;;;2.58;;
25780;SDS011;13626;48.128;11.628;2023-07-29T10:03:21;3.42;;;3.13;;
25780;SDS011;13626;48.128;11.628;2023-07-29T10:05:49;3.00;;;2.70;;
25780;SDS011;13626;48.128;11.628;2023-07-29T10:08:16;4.10;;;2.88;;
25780;SDS011;13626;48.128;11.628;2023-07-29T10:10:45;3.67;;;2.60;;
25780;SDS011;13626;48.128;11.628;2023-07-29T10:13:12;3.90;;;3.50;;
25780;SDS011;13626;48.128;11.628;2023-07-29T10:15:40;4.22;;;3.20;;
25780;SDS011;13626;48.128;11.628;2023-07-29T10:18:07;3.33;;;3.03;;
25780;SDS011;13626;48.128;11.628;2023-07-29T10:20:35;2.95;;;2.65;;
25780;SDS011;13626;48.128;11.628;2023-07-29T10:23:02;4.07;;;2.83;;
25780;SDS011;13626;48.128;11.628;2023-07-29T10:25:34;3.22;;;2.92;;
25780;SDS011;13626;48.128;11.628;2023-07-29T10:28:06;3.38;;;2.90;;
25780;SDS011;13626;48.128;11.628;2023-07-29T10:30:34;2.97;;;2.72;;
25780;SDS011;13626;48.128;11.628;2023-07-29T10:33:02;4.20;;;3.05;;
25780;SDS011;13626;48.128;11.628;2023-07-29T10:35:34;3.40;;;3.10;;
25780;SDS011;13626;48.128;11.628;2023-07-29T10:38:02;3.55;;;2.55;;
25780;SDS011;13626;48.128;11.628;2023-07-29T10:45:59;2.72;;;2.42;;
25780;SDS011;13626;48.128;11.628;2023-07-29T10:48:54;3.05;;;2.75;;
25780;SDS011;13626;48.128;11.628;2023-07-29T10:51:35;4.82;;;3.38;;
25780;SDS011;13626;48.128;11.628;2023-07-29T10:54:10;2.58;;;2.38;;
25780;SDS011;13626;48.128;11.628;2023-07-29T10:56:42;3.17;;;2.88;;
25780;SDS011;13626;48.128;11.628;2023-07-29T11:01:54;4.93;;;3.22;;
25780;SDS011;13626;48.128;11.628;2023-07-29T11:04:22;3.65;;;3.13;;
25780;SDS011;13626;48.128;11.628;2023-07-29T11:14:55;3.95;;;3.08;;
25780;SDS011;13626;48.128;11.628;2023-07-29T11:17:26;3.40;;;3.08;;
25780;SDS011;13626;48.128;11.628;2023-07-29T11:19:54;3.28;;;2.90;;
25780;SDS011;13626;48.128;11.628;2023-07-29T11:22:23;4.50;;;3.10;;
25780;SDS011;13626;48.128;11.628;2023-07-29T11:24:54;3.70;;;3.00;;
25780;SDS011;13626;48.128;11.628;2023-07-29T11:27:22;3.47;;;2.80;;
25780;SDS011;13626;48.128;11.628;2023-07-29T11:29:58;2.47;;;2.10;;
25780;SDS011;13626;48.128;11.628;2023-07-29T11:32:29;2.42;;;1.90;;
25780;SDS011;13626;48.128;11.628;2023-07-29T11:34:57;2.72;;;2.22;;
25780;SDS011;13626;48.128;11.628;2023-07-29T11:37:24;2.97;;;2.20;;
25780;SDS011;13626;48.128;11.628;2023-07-29T11:39:52;6.28;;;3.53;;
25780;SDS011;13626;48.128;11.628;2023-07-29T11:42:20;2.92;;;2.10;;
25780;SDS011;13626;48.128;11.628;2023-07-29T11:44:47;3.08;;;2.17;;
25780;SDS011;13626;48.128;11.628;2023-07-29T11:47:15;2.50;;;2.00;;
25780;SDS011;13626;48.128;11.628;2023-07-29T11:49:42;3.80;;;2.30;;
25780;SDS011;13626;48.128;11.628;2023-07-29T11:52:11;3.85;;;2.20;;
25780;SDS011;13626;48.128;11.628;2023-07-29T11:54:47;2.55;;;2.08;;
25780;SDS011;13626;48.128;11.628;2023-07-29T11:57:15;2.40;;;2.20;;
25780;SDS011;13626;48.128;11.628;2023-07-29T11:59:43;2.42;;;2.22;;
25780;SDS011;13626;48.128;11.628;2023-07-29T12:02:13;4.82;;;2.25;;
25780;SDS011;13626;48.128;11.628;2023-07-29T12:04:49;3.92;;;2.22;;
25780;SDS011;13626;48.128;11.628;2023-07-29T12:07:17;2.25;;;2.05;;
25780;SDS011;13626;48.128;11.628;2023-07-29T12:09:45;2.42;;;2.20;;
25780;SDS011;13626;48.128;11.628;2023-07-29T12:12:14;2.70;;;2.50;;
25780;SDS011;13626;48.128;11.628;2023-07-29T12:14:45;2.67;;;2.40;;
25780;SDS011;13626;48.128;11.628;2023-07-29T12:17:15;2.55;;;2.20;;
25780;SDS011;13626;48.128;11.628;2023-07-29T12:19:42;2.88;;;2.58;;
25780;SDS011;13626;48.128;11.628;2023-07-29T12:22:10;2.53;;;2.33;;
25780;SDS011;13626;48.128;11.628;2023-07-29T12:24:39;2.72;;;2.30;;
25780;SDS011;13626;48.128;11.628;2023-07-29T12:27:14;4.72;;;3.17;;
25780;SDS011;13626;48.128;11.628;2023-07-29T12:29:45;3.35;;;2.65;;
25780;SDS011;13626;48.128;11.628;2023-07-29T12:32:15;2.80;;;2.55;;
25780;SDS011;13626;48.128;11.628;2023-07-29T12:34:42;2.58;;;2.38;;
25780;SDS011;13626;48.128;11.628;2023-07-29T12:37:09;4.15;;;2.50;;
25780;SDS011;13626;48.128;11.628;2023-07-29T12:39:39;3.05;;;2.75;;
25780;SDS011;13626;48.128;11.628;2023-07-29T12:42:11;2.58;;;2.38;;
25780;SDS011;13626;48.128;11.628;2023-07-29T12:44:38;4.13;;;3.10;;
25780;SDS011;13626;48.128;11.628;2023-07-29T12:47:06;4.15;;;2.50;;
25780;SDS011;13626;48.128;11.628;2023-07-29T12:49:35;3.25;;;2.70;;
25780;SDS011;13626;48.128;11.628;2023-07-29T12:52:05;3.63;;;3.30;;
25780;SDS011;13626;48.128;11.628;2023-07-29T12:54:32;3.20;;;2.83;;
25780;SDS011;13626;48.128;11.628;2023-07-29T12:57:01;2.40;;;2.20;;
25780;SDS011;13626;48.128;11.628;2023-07-29T12:59:28;3.22;;;2.92;;
25780;SDS011;13626;48.128;11.628;2023-07-29T13:01:55;4.25;;;3.13;;
25780;SDS011;13626;48.128;11.628;2023-07-29T13:04:23;2.80;;;2.53;;
25780;SDS011;13626;48.128;11.628;2023-07-29T13:06:50;3.13;;;2.50;;
25780;SDS011;13626;48.128;11.628;2023-07-29T13:09:17;3.38;;;2.92;;
25780;SDS011;13626;48.128;11.628;2023-07-29T13:11:44;4.53;;;2.70;;
25780;SDS011;13626;48.128;11.628;2023-07-29T13:14:12;3.42;;;2.53;;
25780;SDS011;13626;48.128;11.628;2023-07-29T13:16:39;3.72;;;2.63;;
25780;SDS011;13626;48.128;11.628;2023-07-29T13:19:07;5.85;;;2.72;;
25780;SDS011;13626;48.128;11.628;2023-07-29T13:21:34;4.65;;;3.30;;
25780;SDS011;13626;48.128;11.628;2023-07-29T13:24:01;5.85;;;3.20;;
25780;SDS011;13626;48.128;11.628;2023-07-29T13:26:29;5.93;;;3.45;;
25780;SDS011;13626;48.128;11.628;2023-07-29T13:28:56;4.40;;;3.25;;
25780;SDS011;13626;48.128;11.628;2023-07-29T13:31:23;5.15;;;3.42;;
25780;SDS011;13626;48.128;11.628;2023-07-29T13:33:51;8.23;;;3.53;;
25780;SDS011;13626;48.128;11.628;2023-07-29T13:36:18;5.85;;;3.80;;
25780;SDS011;13626;48.128;11.628;2023-07-29T13:38:45;6.00;;;4.50;;
25780;SDS011;13626;48.128;11.628;2023-07-29T13:41:12;5.60;;;3.90;;
25780;SDS011;13626;48.128;11.628;2023-07-29T13:43:40;5.63;;;4.55;;
25780;SDS011;13626;48.128;11.628;2023-07-29T13:46:07;5.13;;;4.20;;
25780;SDS011;13626;48.128;11.628;2023-07-29T13:48:34;5.65;;;4.05;;
25780;SDS011;13626;48.128;11.628;2023-07-29T13:51:02;8.85;;;4.90;;
25780;SDS011;13626;48.128;11.628;2023-07-29T13:53:29;7.53;;;4.72;;
25780;SDS011;13626;48.128;11.628;2023-07-29T13:55:56;7.43;;;4.65;;
25780;SDS011;13626;48.128;11.628;2023-07-29T13:58:23;5.50;;;3.88;;
25780;SDS011;13626;48.128;11.628;2023-07-29T14:00:52;6.53;;;4.05;;
25780;SDS011;13626;48.128;11.628;2023-07-29T14:03:19;5.93;;;3.85;;
25780;SDS011;13626;48.128;11.628;2023-07-29T14:05:48;3.88;;;3.50;;
25780;SDS011;13626;48.128;11.628;2023-07-29T14:08:16;5.22;;;3.45;;
25780;SDS011;13626;48.128;11.628;2023-07-29T14:10:43;5.32;;;4.32;;
25780;SDS011;13626;48.128;11.628;2023-07-29T14:13:10;4.00;;;3.55;;
25780;SDS011;13626;48.128;11.628;2023-07-29T14:15:38;3.88;;;3.42;;
25780;SDS011;13626;48.128;11.628;2023-07-29T14:18:05;5.28;;;3.90;;
25780;SDS011;13626;48.128;11.628;2023-07-29T14:20:33;6.22;;;4.15;;
25780;SDS011;13626;48.128;11.628;2023-07-29T14:23:00;4.25;;;3.70;;
25780;SDS011;13626;48.128;11.628;2023-07-29T14:25:27;6.22;;;3.40;;
25780;SDS011;13626;48.128;11.628;2023-07-29T14:27:56;4.47;;;3.58;;
25780;SDS011;13626;48.128;11.628;2023-07-29T14:30:23;5.07;;;3.20;;
25780;SDS011;13626;48.128;11.628;2023-07-29T14:32:50;5.38;;;4.03;;
25780;SDS011;13626;48.128;11.628;2023-07-29T14:35:18;4.72;;;2.90;;
25780;SDS011;13626;48.128;11.628;2023-07-29T14:37:45;5.00;;;3.47;;
25780;SDS011;13626;48.128;11.628;2023-07-29T14:40:13;11.23;;;3.63;;
25780;SDS011;13626;48.128;11.628;2023-07-29T14:42:40;6.15;;;3.78;;
25780;SDS011;13626;48.128;11.628;2023-07-29T14:45:07;4.80;;;3.70;;
25780;SDS011;13626;48.128;11.628;2023-07-29T14:47:35;6.05;;;3.53;;
25780;SDS011;13626;48.128;11.628;2023-07-29T14:50:02;6.20;;;3.70;;
25780;SDS011;13626;48.128;11.628;2023-07-29T14:52:31;6.97;;;3.80;;
25780;SDS011;13626;48.128;11.628;2023-07-29T14:54:58;4.07;;;3.30;;
25780;SDS011;13626;48.128;11.628;2023-07-29T14:57:25;5.50;;;4.57;;
25780;SDS011;13626;48.128;11.628;2023-07-29T14:59:53;4.55;;;3.60;;
25780;SDS011;13626;48.128;11.628;2023-07-29T15:02:20;4.47;;;3.40;;